createdAt,value
2023-03-15T00:00:22.630Z,5.699
2023-03-15T00:01:21.653Z,5.900
2023-03-15T00:03:21.516Z,5.699
2023-03-15T00:04:21.652Z,5.800
2023-03-15T00:06:21.328Z,6.199
2023-03-15T00:07:21.715Z,6
2023-03-15T00:08:21.286Z,5.800
2023-03-15T00:09:21.914Z,6
2023-03-15T00:10:21.583Z,5.699
2023-03-15T00:11:21.907Z,5.900
2023-03-15T00:12:21.674Z,5.300
2023-03-15T00:13:21.308Z,5.900
2023-03-15T00:14:21.455Z,6.199
2023-03-15T00:15:21.982Z,5.900
2023-03-15T00:17:21.829Z,6.199
2023-03-15T00:18:21.485Z,6
2023-03-15T00:19:21.446Z,5.900
2023-03-15T00:20:22.149Z,6
2023-03-15T00:21:22.210Z,5.800
2023-03-15T00:23:21.541Z,5.900
2023-03-15T00:24:24.965Z,5.800
2023-03-15T00:25:21.596Z,5.900
2023-03-15T00:26:21.093Z,6
2023-03-15T00:27:21.369Z,5.800
2023-03-15T00:29:21.837Z,5.900
2023-03-15T00:30:21.977Z,5.099
2023-03-15T00:31:21.717Z,5.599
2023-03-15T00:32:21.397Z,6.099
2023-03-15T00:33:21.622Z,5.599
2023-03-15T00:34:21.711Z,6
2023-03-15T00:35:21.448Z,5.300
2023-03-15T00:36:21.883Z,6.400
2023-03-15T00:37:21.279Z,6.099
2023-03-15T00:39:21.666Z,5.800
2023-03-15T00:40:22.106Z,5.5
2023-03-15T00:41:21.482Z,5.199
2023-03-15T00:42:21.796Z,5.900
2023-03-15T00:43:21.193Z,6.400
2023-03-15T00:44:21.524Z,6.099
2023-03-15T00:45:22.470Z,5.800
2023-03-15T00:47:21.695Z,6
2023-03-15T00:48:21.328Z,5.800
2023-03-15T00:49:21.693Z,6
2023-03-15T00:50:21.978Z,5.800
2023-03-15T00:52:22.007Z,5.599
2023-03-15T00:53:21.355Z,5.800
2023-03-15T00:55:21.161Z,6
2023-03-15T00:56:21.428Z,5.900
2023-03-15T00:57:21.056Z,5.699
2023-03-15T00:58:23.486Z,5.599
2023-03-15T00:59:21.568Z,5.5
2023-03-15T01:01:25.245Z,5.599
2023-03-15T01:03:21.465Z,5.599
2023-03-15T01:04:21.478Z,5.400
2023-03-15T01:05:22.436Z,5.199
2023-03-15T01:06:21.985Z,5.5
2023-03-15T01:07:21.271Z,5.199
2023-03-15T01:08:21.530Z,6
2023-03-15T01:09:21.899Z,5
2023-03-15T01:10:21.945Z,5.800
2023-03-15T01:11:21.188Z,5
2023-03-15T01:12:21.726Z,5.5
2023-03-15T01:13:21.832Z,5.199
2023-03-15T01:14:21.364Z,5.599
2023-03-15T01:15:22.009Z,5.199
2023-03-15T01:17:22.067Z,4.900
2023-03-15T01:18:21.862Z,5.599
2023-03-15T01:19:21.554Z,5
2023-03-15T01:20:21.749Z,5.099
2023-03-15T01:21:21.504Z,5.199
2023-03-15T01:23:21.214Z,4.800
2023-03-15T01:24:21.353Z,5.599
2023-03-15T01:25:22.015Z,5
2023-03-15T01:26:21.357Z,5.099
2023-03-15T01:27:21.564Z,4.800
2023-03-15T01:28:20.988Z,4.699
2023-03-15T01:29:21.380Z,4.400
2023-03-15T01:30:22.386Z,4.800
2023-03-15T01:31:21.708Z,4.699
2023-03-15T01:32:21.689Z,5
2023-03-15T01:33:21.127Z,4.599
2023-03-15T01:34:21.589Z,4.199
2023-03-15T01:35:22.421Z,4.699
2023-03-15T01:36:21.972Z,4.800
2023-03-15T01:37:21.638Z,4.599
2023-03-15T01:38:21.402Z,4.400
2023-03-15T01:39:21.741Z,4.5
2023-03-15T01:40:21.605Z,4.300
2023-03-15T01:41:21.507Z,4.5
2023-03-15T01:42:21.624Z,4.599
2023-03-15T01:44:21.354Z,4.5
2023-03-15T01:46:21.799Z,4.800
2023-03-15T01:47:21.320Z,4.5
2023-03-15T01:48:21.660Z,4.800
2023-03-15T01:50:21.690Z,4.599
2023-03-15T01:51:22.060Z,4.800
2023-03-15T01:52:21.238Z,4.400
2023-03-15T01:54:21.536Z,4.599
2023-03-15T01:55:21.850Z,4.900
2023-03-15T01:56:21.861Z,4.699
2023-03-15T01:57:21.528Z,4.5
2023-03-15T01:58:21.384Z,4.400
2023-03-15T02:00:22.267Z,4.599
2023-03-15T02:02:21.183Z,4.400
2023-03-15T02:03:21.554Z,4.300
2023-03-15T02:04:22.317Z,4.599
2023-03-15T02:05:22.240Z,4.5
2023-03-15T02:07:21.544Z,4.599
2023-03-15T02:09:21.734Z,4.5
2023-03-15T02:10:22.196Z,4.699
2023-03-15T02:12:21.865Z,4.300
2023-03-15T02:13:21.652Z,5
2023-03-15T02:14:21.264Z,4.400
2023-03-15T02:15:21.956Z,4.5
2023-03-15T02:16:21.430Z,4.199
2023-03-15T02:17:21.519Z,4.5
2023-03-15T02:18:21.370Z,4.599
2023-03-15T02:20:21.712Z,4.5
2023-03-15T02:21:21.773Z,4.400
2023-03-15T02:22:21.669Z,4.199
2023-03-15T02:23:22.086Z,4.599
2023-03-15T02:25:21.450Z,4.5
2023-03-15T02:26:21.642Z,4.400
2023-03-15T02:27:21.649Z,3.900
2023-03-15T02:28:35.452Z,4.300
2023-03-15T02:29:21.845Z,4.699
2023-03-15T02:30:21.491Z,4.800
2023-03-15T02:31:21.090Z,4.400
2023-03-15T02:32:21.685Z,4
2023-03-15T02:33:21.111Z,4.300
2023-03-15T02:35:21.787Z,4.099
2023-03-15T02:36:21.324Z,4.599
2023-03-15T02:37:21.449Z,4
2023-03-15T02:38:21.812Z,3.599
2023-03-15T02:39:20.936Z,4.199
2023-03-15T02:40:21.439Z,4.099
2023-03-15T02:42:21.740Z,3.799
2023-03-15T02:43:21.616Z,4.099
2023-03-15T02:44:21.511Z,4.400
2023-03-15T02:45:22.361Z,4.599
2023-03-15T02:46:21.634Z,3.700
2023-03-15T02:47:21.881Z,3.799
2023-03-15T02:48:21.271Z,3.5
2023-03-15T02:49:21.484Z,4.199
2023-03-15T02:51:21.056Z,4.099
2023-03-15T02:52:21.453Z,3.599
2023-03-15T02:53:21.527Z,3.700
2023-03-15T02:54:21.571Z,4.400
2023-03-15T02:55:21.634Z,4.099
2023-03-15T02:56:21.305Z,4
2023-03-15T02:58:21.274Z,3.599
2023-03-15T02:59:20.817Z,3.5
2023-03-15T03:00:22.618Z,3.599
2023-03-15T03:01:21.427Z,3.900
2023-03-15T03:02:21.674Z,3.5
2023-03-15T03:03:21.760Z,3.299
2023-03-15T03:04:21.430Z,3.200
2023-03-15T03:05:21.853Z,3.299
2023-03-15T03:06:21.480Z,3.700
2023-03-15T03:07:21.114Z,4.099
2023-03-15T03:08:21.431Z,3.900
2023-03-15T03:09:21.207Z,3.700
2023-03-15T03:10:21.245Z,3.799
2023-03-15T03:11:21.427Z,3.5
2023-03-15T03:12:21.283Z,3.799
2023-03-15T03:13:21.240Z,3.700
2023-03-15T03:14:21.290Z,3.200
2023-03-15T03:15:22.121Z,3.599
2023-03-15T03:16:21.628Z,3.5
2023-03-15T03:17:21.681Z,3.799
2023-03-15T03:19:21.176Z,4
2023-03-15T03:20:21.134Z,3.700
2023-03-15T03:21:21.295Z,3.400
2023-03-15T03:22:21.221Z,3.200
2023-03-15T03:23:20.927Z,3.5
2023-03-15T03:24:21.531Z,3.799
2023-03-15T03:25:21.728Z,3.400
2023-03-15T03:27:20.977Z,3.599
2023-03-15T03:29:21.166Z,3.700
2023-03-15T03:30:22.003Z,3.799
2023-03-15T03:32:21.145Z,3.5
2023-03-15T03:33:20.324Z,3.400
2023-03-15T03:34:21.124Z,3.099
2023-03-15T03:35:21.258Z,3.200
2023-03-15T03:36:20.796Z,3
2023-03-15T03:37:21.615Z,2.599
2023-03-15T03:38:21.410Z,2.799
2023-03-15T03:39:21.687Z,2.700
2023-03-15T03:40:21.638Z,2.799
2023-03-15T03:41:20.866Z,2.700
2023-03-15T03:42:21.637Z,2.799
2023-03-15T03:44:21.294Z,2.5
2023-03-15T03:45:21.451Z,2.200
2023-03-15T03:46:21.738Z,2.599
2023-03-15T03:47:20.845Z,2.200
2023-03-15T03:48:21.716Z,2.5
2023-03-15T03:50:21.366Z,2.200
2023-03-15T03:51:21.665Z,2.400
2023-03-15T03:52:21.685Z,2.200
2023-03-15T03:54:21.314Z,2.299
2023-03-15T03:56:21.233Z,2.200
2023-03-15T03:57:21.336Z,2.400
2023-03-15T03:58:21.591Z,2.200
2023-03-15T04:00:22.345Z,2
2023-03-15T04:01:22.067Z,2.099
2023-03-15T04:02:21.642Z,2.299
2023-03-15T04:03:20.869Z,2.400
2023-03-15T04:04:21.154Z,2.5
2023-03-15T04:05:21.829Z,2
2023-03-15T04:08:21.738Z,2.099
2023-03-15T04:09:21.835Z,2
2023-03-15T04:11:21.561Z,1.899
2023-03-15T04:13:21.229Z,2
2023-03-15T04:14:21.459Z,1.899
2023-03-15T04:15:21.663Z,2
2023-03-15T04:17:21.476Z,1.700
2023-03-15T04:18:21.120Z,1.600
2023-03-15T04:19:21.247Z,1.399
2023-03-15T04:22:21.728Z,1.100
2023-03-15T04:24:21.692Z,1
2023-03-15T04:25:21.430Z,0.899
2023-03-15T04:28:21.410Z,0.5
2023-03-15T04:31:21.150Z,0.600
2023-03-15T04:33:21.092Z,0.300
2023-03-15T04:34:21.976Z,0.400
2023-03-15T04:35:27.045Z,0.5
2023-03-15T04:36:21.348Z,0.300
2023-03-15T04:37:21.593Z,0.400
2023-03-15T04:38:21.210Z,0.5
2023-03-15T04:40:21.193Z,0.400
2023-03-15T04:41:21.199Z,0.300
2023-03-15T04:43:21.604Z,0.200
2023-03-15T04:45:21.670Z,0.300
2023-03-15T04:46:22.962Z,0.200
2023-03-15T04:47:21.618Z,0.300
2023-03-15T04:49:35.679Z,0.400
2023-03-15T04:50:21.985Z,0.200
2023-03-15T04:51:21.289Z,0.300
2023-03-15T04:52:21.328Z,0.200
2023-03-15T04:53:21.520Z,0.5
2023-03-15T04:55:21.709Z,0.200
2023-03-15T04:56:21.316Z,0.300
2023-03-15T04:57:21.660Z,0.200
2023-03-15T04:58:21.807Z,0.300
2023-03-15T05:02:21.875Z,0.200
2023-03-15T05:03:21.535Z,0.300
2023-03-15T05:05:22.084Z,0.400
2023-03-15T05:07:21.514Z,0.300
2023-03-15T05:11:21.458Z,0.400
2023-03-15T05:14:21.890Z,0.200
2023-03-15T05:15:21.644Z,0.400
2023-03-15T05:17:21.036Z,0.200
2023-03-15T05:18:21.137Z,0.5
2023-03-15T05:19:21.465Z,0.400
2023-03-15T05:21:21.208Z,0.5
2023-03-15T05:22:21.026Z,0.400
2023-03-15T05:24:21.610Z,0.600
2023-03-15T05:25:22.030Z,0.5
2023-03-15T05:26:21.743Z,0.400
2023-03-15T05:28:21.774Z,0.5
2023-03-15T05:29:22.219Z,0.800
2023-03-15T05:30:22.324Z,0.5
2023-03-15T05:31:22.154Z,0.800
2023-03-15T05:32:21.600Z,0.899
2023-03-15T05:35:21.667Z,1.299
2023-03-15T05:36:21.923Z,1
2023-03-15T05:37:21.117Z,0.800
2023-03-15T05:38:21.606Z,1
2023-03-15T05:39:21.694Z,0.800
2023-03-15T05:40:21.051Z,0.699
2023-03-15T05:41:21.529Z,0.899
2023-03-15T05:43:21.366Z,0.699
2023-03-15T05:44:21.556Z,0.600
2023-03-15T05:45:21.841Z,0.699
2023-03-15T05:46:21.297Z,0.5
2023-03-15T05:47:21.662Z,0.600
2023-03-15T05:49:21.329Z,0.699
2023-03-15T05:50:22.060Z,0.899
2023-03-15T05:51:21.227Z,0.800
2023-03-15T05:52:21.263Z,0.600
2023-03-15T05:53:21.701Z,0.899
2023-03-15T05:54:21.413Z,0.800
2023-03-15T05:55:22.038Z,0.699
2023-03-15T05:56:21.979Z,0.800
2023-03-15T05:57:22.048Z,1
2023-03-15T05:58:21.747Z,0.800
2023-03-15T06:00:22.794Z,0.699
2023-03-15T06:02:21.570Z,0.800
2023-03-15T06:03:21.562Z,1
2023-03-15T06:04:22.372Z,0.800
2023-03-15T06:07:21.937Z,0.899
2023-03-15T06:08:21.528Z,0.600
2023-03-15T06:09:22.145Z,0.800
2023-03-15T06:10:22.145Z,1
2023-03-15T06:11:21.814Z,0.899
2023-03-15T06:12:21.455Z,0.600
2023-03-15T06:13:21.769Z,0.800
2023-03-15T06:14:21.956Z,0.899
2023-03-15T06:15:21.382Z,1
2023-03-15T06:16:21.394Z,1.100
2023-03-15T06:17:21.267Z,1.200
2023-03-15T06:18:21.633Z,1.399
2023-03-15T06:19:21.973Z,1.600
2023-03-15T06:20:22.087Z,1.899
2023-03-15T06:21:21.387Z,1.700
2023-03-15T06:22:21.469Z,1.600
2023-03-15T06:23:21.269Z,1.700
2023-03-15T06:24:21.368Z,1.399
2023-03-15T06:25:22.020Z,1.799
2023-03-15T06:26:21.308Z,1.5
2023-03-15T06:27:21.820Z,2.099
2023-03-15T06:28:21.522Z,1.899
2023-03-15T06:30:22.195Z,2.200
2023-03-15T06:31:21.469Z,1.899
2023-03-15T06:32:21.610Z,2.400
2023-03-15T06:33:21.190Z,2.599
2023-03-15T06:34:21.978Z,2.900
2023-03-15T06:35:21.991Z,3.400
2023-03-15T06:36:21.956Z,3.299
2023-03-15T06:37:34.118Z,3.200
2023-03-15T06:38:21.468Z,3.599
2023-03-15T06:39:21.629Z,3.5
2023-03-15T06:40:22.450Z,3.200
2023-03-15T06:41:21.715Z,3.299
2023-03-15T06:42:21.869Z,3.099
2023-03-15T06:43:21.405Z,3
2023-03-15T06:44:21.713Z,3.299
2023-03-15T06:45:21.862Z,2.900
2023-03-15T06:46:21.937Z,3.099
2023-03-15T06:47:21.396Z,3.200
2023-03-15T06:48:21.635Z,2.900
2023-03-15T06:49:21.512Z,3
2023-03-15T06:50:21.687Z,2.900
2023-03-15T06:54:22.868Z,2.700
2023-03-15T06:55:23.349Z,2.900
2023-03-15T06:56:22.452Z,2.700
2023-03-15T06:58:26.419Z,2.799
2023-03-15T06:59:22.012Z,3
2023-03-15T07:01:21.883Z,2.799
2023-03-15T07:02:27.010Z,2.700
2023-03-15T07:03:22.152Z,2.799
2023-03-15T07:04:21.716Z,2.700
2023-03-15T07:05:21.741Z,3.200
2023-03-15T07:06:26.996Z,3
2023-03-15T07:08:22.116Z,3.099
2023-03-15T07:10:22.336Z,3
2023-03-15T07:11:22.177Z,2.799
2023-03-15T07:12:22.189Z,2.900
2023-03-15T07:13:22.120Z,3.299
2023-03-15T07:14:22.509Z,2.900
2023-03-15T07:16:21.804Z,3.099
2023-03-15T07:17:22.301Z,2.700
2023-03-15T07:18:22.496Z,3.200
2023-03-15T07:19:22.423Z,2.799
2023-03-15T07:20:37.888Z,3.099
2023-03-15T07:22:22.310Z,3
2023-03-15T07:24:22.335Z,2.900
2023-03-15T07:25:22.898Z,3.200
2023-03-15T07:26:22.267Z,3.099
2023-03-15T07:27:22.869Z,3
2023-03-15T07:28:36.679Z,3.099
2023-03-15T07:30:23.609Z,3.400
2023-03-15T07:31:22.184Z,3.700
2023-03-15T07:32:22.563Z,3.5
2023-03-15T07:33:22.689Z,3.700
2023-03-15T07:34:22.424Z,3.299
2023-03-15T07:36:22.049Z,3.599
2023-03-15T07:37:22.434Z,3.799
2023-03-15T07:38:22.591Z,3.299
2023-03-15T07:42:22.028Z,3.200
2023-03-15T07:43:22.000Z,3.299
2023-03-15T07:44:22.251Z,3.200
2023-03-15T07:45:22.745Z,3
2023-03-15T07:46:22.597Z,2.599
2023-03-15T07:47:22.265Z,2.200
2023-03-15T07:48:22.338Z,2.299
2023-03-15T07:49:21.557Z,2.099
2023-03-15T07:50:22.069Z,1.899
2023-03-15T07:51:22.742Z,2
2023-03-15T07:52:22.246Z,1.899
2023-03-15T07:53:21.836Z,1.799
2023-03-15T07:54:22.655Z,2
2023-03-15T07:55:22.150Z,1.600
2023-03-15T07:56:22.224Z,1.899
2023-03-15T07:57:22.619Z,2
2023-03-15T07:58:21.861Z,1.799
2023-03-15T07:59:22.034Z,2
2023-03-15T08:00:24.293Z,1.899
2023-03-15T08:01:22.623Z,2
2023-03-15T08:04:22.316Z,2.200
2023-03-15T08:05:21.946Z,2
2023-03-15T08:06:22.310Z,2.299
2023-03-15T08:08:22.952Z,2.200
2023-03-15T08:09:22.939Z,2.099
2023-03-15T08:10:22.510Z,2.299
2023-03-15T08:11:22.347Z,2.5
2023-03-15T08:12:22.454Z,2.200
2023-03-15T08:13:21.842Z,2.299
2023-03-15T08:14:22.593Z,2.5
2023-03-15T08:15:23.328Z,2.400
2023-03-15T08:16:22.184Z,2.599
2023-03-15T08:17:22.423Z,2.400
2023-03-15T08:18:22.669Z,2.5
2023-03-15T08:19:22.269Z,2.400
2023-03-15T08:20:21.844Z,2.5
2023-03-15T08:21:22.997Z,2.599
2023-03-15T08:22:22.954Z,2.400
2023-03-15T08:23:22.454Z,2.299
2023-03-15T08:24:22.076Z,2.599
2023-03-15T08:25:22.891Z,2.5
2023-03-15T08:26:22.631Z,2.400
2023-03-15T08:27:22.177Z,2.5
2023-03-15T08:28:22.412Z,2.799
2023-03-15T08:29:22.648Z,2.900
2023-03-15T08:30:22.935Z,2.799
2023-03-15T08:32:23.325Z,2.700
2023-03-15T08:34:22.313Z,2.5
2023-03-15T08:35:22.532Z,2.799
2023-03-15T08:36:22.410Z,3
2023-03-15T08:37:22.427Z,3.099
2023-03-15T08:38:22.611Z,2.799
2023-03-15T08:39:22.104Z,3.099
2023-03-15T08:41:22.243Z,3
2023-03-15T08:42:22.801Z,3.299
2023-03-15T08:43:22.373Z,3.200
2023-03-15T08:44:22.345Z,3.599
2023-03-15T08:46:22.375Z,3.5
2023-03-15T08:47:22.488Z,3.099
2023-03-15T08:48:22.672Z,3.299
2023-03-15T08:49:22.670Z,3.400
2023-03-15T08:50:22.632Z,3.200
2023-03-15T08:51:22.076Z,3.299
2023-03-15T08:53:22.504Z,3.200
2023-03-15T08:54:21.942Z,3.599
2023-03-15T08:55:22.810Z,3.5
2023-03-15T08:56:21.954Z,3.700
2023-03-15T08:59:31.331Z,3.599
2023-03-15T09:00:23.650Z,3.5
2023-03-15T09:01:22.383Z,3.200
2023-03-15T09:03:22.231Z,2.900
2023-03-15T09:04:22.240Z,2.700
2023-03-15T09:05:21.768Z,3.299
2023-03-15T09:06:22.412Z,3
2023-03-15T09:07:21.943Z,3.299
2023-03-15T09:08:21.917Z,3.099
2023-03-15T09:09:22.030Z,2.799
2023-03-15T09:10:22.647Z,2.599
2023-03-15T09:11:22.701Z,2.299
2023-03-15T09:13:22.026Z,2.400
2023-03-15T09:15:24.068Z,2.099
2023-03-15T09:16:21.970Z,1.899
2023-03-15T09:17:22.016Z,2.299
2023-03-15T09:18:22.559Z,2.599
2023-03-15T09:19:21.946Z,2.5
2023-03-15T09:20:22.266Z,2.400
2023-03-15T09:21:22.326Z,2.5
2023-03-15T09:22:34.733Z,2.700
2023-03-15T09:23:21.849Z,2.799
2023-03-15T09:24:21.767Z,2.299
2023-03-15T09:25:26.604Z,2.5
2023-03-15T09:26:22.131Z,2.299
2023-03-15T09:27:22.078Z,2
2023-03-15T09:28:22.507Z,2.299
2023-03-15T09:29:21.705Z,2.200
2023-03-15T09:30:22.461Z,2.299
2023-03-15T09:31:26.835Z,2
2023-03-15T09:32:22.412Z,2.099
2023-03-15T09:33:22.118Z,2
2023-03-15T09:34:23.533Z,1.600
2023-03-15T09:35:22.010Z,1.799
2023-03-15T09:36:21.905Z,1.600
2023-03-15T09:37:22.296Z,2.099
2023-03-15T09:38:21.552Z,2
2023-03-15T09:39:21.876Z,1.799
2023-03-15T09:40:22.380Z,1.700
2023-03-15T09:41:22.095Z,1.799
2023-03-15T09:42:22.285Z,2.099
2023-03-15T09:43:22.398Z,1.899
2023-03-15T09:44:21.763Z,2.099
2023-03-15T09:45:22.308Z,1.700
2023-03-15T09:47:21.855Z,2
2023-03-15T09:48:21.936Z,2.200
2023-03-15T09:49:36.591Z,1.899
2023-03-15T09:50:22.429Z,2.099
2023-03-15T09:51:22.212Z,1.899
2023-03-15T09:52:22.824Z,2.299
2023-03-15T09:53:21.782Z,2.200
2023-03-15T09:54:22.299Z,2.5
2023-03-15T09:55:22.305Z,2
2023-03-15T09:56:22.234Z,2.200
2023-03-15T09:57:22.439Z,2
2023-03-15T09:59:23.449Z,2.200
2023-03-15T10:00:24.269Z,2.099
2023-03-15T10:01:22.646Z,1.899
2023-03-15T10:02:23.367Z,2.599
2023-03-15T10:03:22.614Z,2.799
2023-03-15T10:04:22.446Z,3.299
2023-03-15T10:05:22.951Z,3.900
2023-03-15T10:06:22.707Z,3.599
2023-03-15T10:07:22.154Z,3.700
2023-03-15T10:08:22.384Z,3.5
2023-03-15T10:09:22.104Z,3.900
2023-03-15T10:11:22.213Z,3.799
2023-03-15T10:12:23.129Z,3.900
2023-03-15T10:13:22.119Z,4.199
2023-03-15T10:15:24.104Z,3.900
2023-03-15T10:16:22.809Z,4.099
2023-03-15T10:17:22.738Z,4
2023-03-15T10:19:22.789Z,4.400
2023-03-15T10:20:23.008Z,4
2023-03-15T10:21:22.397Z,4.699
2023-03-15T10:22:22.581Z,4.199
2023-03-15T10:25:22.888Z,4.199
2023-03-15T10:26:22.910Z,4.300
2023-03-15T10:29:22.603Z,4.099
2023-03-15T10:30:23.585Z,3.900
2023-03-15T10:31:32.884Z,4
2023-03-15T10:32:22.033Z,3.900
2023-03-15T10:33:22.622Z,3.700
2023-03-15T10:35:22.390Z,3.599
2023-03-15T10:36:22.020Z,3.400
2023-03-15T10:37:22.268Z,3.299
2023-03-15T10:39:22.178Z,3.200
2023-03-15T10:41:28.745Z,3.299
2023-03-15T10:42:22.402Z,3.099
2023-03-15T10:43:22.202Z,3.400
2023-03-15T10:45:22.399Z,2.799
2023-03-15T10:46:22.496Z,3.299
2023-03-15T10:47:24.379Z,3.599
2023-03-15T10:48:22.179Z,3.5
2023-03-15T10:49:22.723Z,3.700
2023-03-15T10:50:22.400Z,3.200
2023-03-15T10:51:22.244Z,3.400
2023-03-15T10:52:22.130Z,3.200
2023-03-15T10:53:22.805Z,3.299
2023-03-15T10:54:22.626Z,3.200
2023-03-15T10:56:22.508Z,2.900
2023-03-15T10:57:22.617Z,3.099
2023-03-15T10:59:21.958Z,2.900
2023-03-15T11:00:23.430Z,3.299
2023-03-15T11:01:23.163Z,2.799
2023-03-15T11:02:23.598Z,2.599
2023-03-15T11:04:23.394Z,3
2023-03-15T11:06:23.263Z,2.599
2023-03-15T11:06:27.182Z,2.5
2023-03-15T11:07:22.213Z,3
2023-03-15T11:08:21.719Z,2.700
2023-03-15T11:09:22.051Z,3
2023-03-15T11:10:22.973Z,2.700
2023-03-15T11:11:21.746Z,2.599
2023-03-15T11:12:22.621Z,3
2023-03-15T11:13:22.504Z,2.799
2023-03-15T11:14:22.284Z,2.900
2023-03-15T11:15:22.513Z,2.5
2023-03-15T11:16:22.369Z,2.799
2023-03-15T11:17:21.660Z,2.700
2023-03-15T11:18:22.075Z,2.799
2023-03-15T11:19:22.141Z,3
2023-03-15T11:21:22.522Z,2.799
2023-03-15T11:22:21.830Z,2.700
2023-03-15T11:23:22.040Z,2.599
2023-03-15T11:24:22.412Z,2.5
2023-03-15T11:26:32.345Z,2.200
2023-03-15T11:27:22.135Z,2.700
2023-03-15T11:28:21.798Z,2.299
2023-03-15T11:30:22.359Z,2.200
2023-03-15T11:31:22.193Z,1.799
2023-03-15T11:33:22.277Z,1.700
2023-03-15T11:34:22.464Z,1.899
2023-03-15T11:36:22.455Z,1.600
2023-03-15T11:37:22.376Z,2
2023-03-15T11:38:22.193Z,1.799
2023-03-15T11:39:22.193Z,1.899
2023-03-15T11:42:22.529Z,1.799
2023-03-15T11:43:22.229Z,1.700
2023-03-15T11:46:26.765Z,1.899
2023-03-15T11:47:22.509Z,1.799
2023-03-15T11:48:22.440Z,2.099
2023-03-15T11:49:22.121Z,1.799
2023-03-15T11:51:21.651Z,1.700
2023-03-15T11:52:27.071Z,2
2023-03-15T11:53:21.868Z,1.799
2023-03-15T11:57:22.224Z,2.099
2023-03-15T11:58:21.991Z,2.200
2023-03-15T12:01:22.539Z,2.099
2023-03-15T12:03:23.098Z,2.299
2023-03-15T12:04:22.155Z,1.899
2023-03-15T12:05:22.393Z,2.200
2023-03-15T12:06:22.543Z,1.799
2023-03-15T12:07:22.215Z,2.099
2023-03-15T12:08:36.044Z,2
2023-03-15T12:09:25.094Z,2.099
2023-03-15T12:10:22.450Z,2
2023-03-15T12:12:22.248Z,2.200
2023-03-15T12:13:22.254Z,2.099
2023-03-15T12:14:22.396Z,1.700
2023-03-15T12:15:23.490Z,1.799
2023-03-15T12:18:22.260Z,2.099
2023-03-15T12:19:22.393Z,2
2023-03-15T12:20:22.502Z,1.899
2023-03-15T12:21:22.126Z,2
2023-03-15T12:22:41.272Z,1.799
2023-03-15T12:23:21.945Z,2
2023-03-15T12:25:23.010Z,1.899
2023-03-15T12:26:41.737Z,2
2023-03-15T12:28:22.317Z,1.799
2023-03-15T12:29:21.874Z,2
2023-03-15T12:30:42.394Z,1.899
2023-03-15T12:31:22.355Z,2.099
2023-03-15T12:32:22.160Z,1.899
2023-03-15T12:33:22.654Z,1.799
2023-03-15T12:34:22.262Z,2
2023-03-15T12:35:22.628Z,1.600
2023-03-15T12:36:22.539Z,2.099
2023-03-15T12:37:22.259Z,1.899
2023-03-15T12:38:22.701Z,1.600
2023-03-15T12:39:22.155Z,1.899
2023-03-15T12:40:22.240Z,1.600
2023-03-15T12:41:22.668Z,1.799
2023-03-15T12:44:21.651Z,1.600
2023-03-15T12:45:22.723Z,1.700
2023-03-15T12:48:21.835Z,1.899
2023-03-15T12:51:22.671Z,1.799
2023-03-15T12:53:22.593Z,1.899
2023-03-15T12:55:22.717Z,2.099
2023-03-15T12:56:22.179Z,2
2023-03-15T12:57:23.000Z,1.799
2023-03-15T12:58:22.259Z,2.099
2023-03-15T12:59:22.953Z,1.799
2023-03-15T13:00:23.425Z,1.700
2023-03-15T13:01:23.147Z,1.600
2023-03-15T13:04:22.989Z,1.5
2023-03-15T13:05:23.370Z,1.700
2023-03-15T13:06:23.006Z,1.600
2023-03-15T13:07:22.867Z,1.700
2023-03-15T13:08:22.614Z,1.5
2023-03-15T13:09:22.852Z,2.200
2023-03-15T13:10:22.578Z,1.899
2023-03-15T13:11:23.047Z,1.799
2023-03-15T13:12:22.745Z,1.899
2023-03-15T13:13:23.140Z,1.799
2023-03-15T13:14:22.665Z,1.399
2023-03-15T13:15:23.238Z,1.5
2023-03-15T13:16:22.551Z,1.600
2023-03-15T13:17:22.874Z,1.399
2023-03-15T13:18:22.749Z,1.100
2023-03-15T13:19:22.993Z,1.399
2023-03-15T13:20:23.670Z,1.200
2023-03-15T13:21:22.422Z,1.299
2023-03-15T13:23:23.636Z,1.200
2023-03-15T13:24:22.477Z,1.5
2023-03-15T13:25:22.999Z,1.299
2023-03-15T13:27:22.482Z,1.100
2023-03-15T13:28:21.960Z,1.200
2023-03-15T13:29:22.296Z,1.600
2023-03-15T13:30:23.166Z,1.100
2023-03-15T13:31:22.763Z,1.5
2023-03-15T13:32:23.122Z,1.299
2023-03-15T13:33:22.811Z,1.200
2023-03-15T13:34:22.885Z,1.5
2023-03-15T13:35:23.121Z,1.399
2023-03-15T13:36:22.376Z,1.200
2023-03-15T13:37:22.512Z,1.299
2023-03-15T13:38:22.644Z,1.399
2023-03-15T13:39:22.142Z,1.600
2023-03-15T13:40:22.307Z,1.299
2023-03-15T13:41:22.428Z,1.399
2023-03-15T13:42:22.686Z,1.299
2023-03-15T13:43:23.016Z,1.5
2023-03-15T13:44:22.589Z,1
2023-03-15T13:45:22.596Z,1.399
2023-03-15T13:46:22.781Z,1.299
2023-03-15T13:47:22.967Z,1.200
2023-03-15T13:49:22.516Z,1.399
2023-03-15T13:51:22.985Z,1.600
2023-03-15T13:52:22.952Z,1.799
2023-03-15T13:53:22.913Z,1.600
2023-03-15T13:54:22.840Z,1.5
2023-03-15T13:55:23.183Z,1.399
2023-03-15T13:56:23.023Z,1.600
2023-03-15T13:59:22.880Z,1.5
2023-03-15T14:01:26.846Z,1.5
2023-03-15T14:02:22.077Z,1.399
2023-03-15T14:03:22.305Z,1.5
2023-03-15T14:05:22.403Z,1.299
2023-03-15T14:07:22.647Z,1.5
2023-03-15T14:08:22.683Z,1.399
2023-03-15T14:09:22.506Z,1.5
2023-03-15T14:10:22.380Z,1.700
2023-03-15T14:11:22.996Z,1.5
2023-03-15T14:12:22.343Z,1.200
2023-03-15T14:13:22.600Z,1.600
2023-03-15T14:15:27.978Z,1.700
2023-03-15T14:16:22.574Z,1.799
2023-03-15T14:17:22.674Z,1.299
2023-03-15T14:18:22.638Z,1.399
2023-03-15T14:19:22.314Z,1.5
2023-03-15T14:20:23.106Z,1.600
2023-03-15T14:21:22.841Z,1.5
2023-03-15T14:22:23.178Z,1.600
2023-03-15T14:23:30.153Z,1.399
2023-03-15T14:24:22.086Z,1.299
2023-03-15T14:25:22.609Z,1.200
2023-03-15T14:26:22.604Z,1.299
2023-03-15T14:27:30.691Z,1.5
2023-03-15T14:28:22.513Z,1.399
2023-03-15T14:29:22.017Z,1.5
2023-03-15T14:31:21.741Z,1.100
2023-03-15T14:32:23.045Z,1.5
2023-03-15T14:33:22.646Z,1.700
2023-03-15T14:35:22.991Z,1.799
2023-03-15T14:39:37.135Z,1.600
2023-03-15T14:40:22.691Z,1.399
2023-03-15T14:41:23.359Z,1.5
2023-03-15T14:43:22.899Z,1.299
2023-03-15T14:44:22.569Z,1.600
2023-03-15T14:45:22.968Z,1.700
2023-03-15T14:46:22.476Z,1.5
2023-03-15T14:47:22.297Z,1.600
2023-03-15T14:50:23.177Z,1.399
2023-03-15T14:51:22.704Z,1.600
2023-03-15T14:52:22.882Z,1.799
2023-03-15T14:53:22.951Z,1.600
2023-03-15T14:54:22.657Z,1.299
2023-03-15T14:55:41.686Z,1.600
2023-03-15T14:56:22.879Z,1.700
2023-03-15T14:58:22.413Z,1.5
2023-03-15T14:59:22.081Z,1.600
2023-03-15T15:01:22.710Z,1.899
2023-03-15T15:02:22.252Z,1.5
2023-03-15T15:03:22.102Z,1.399
2023-03-15T15:04:22.966Z,1.600
2023-03-15T15:05:45.724Z,1.299
2023-03-15T15:06:23.500Z,1.399
2023-03-15T15:07:22.300Z,1.5
2023-03-15T15:08:22.540Z,1.399
2023-03-15T15:09:22.108Z,1.299
2023-03-15T15:10:22.879Z,1.600
2023-03-15T15:11:22.804Z,1.299
2023-03-15T15:12:22.633Z,1.799
2023-03-15T15:13:22.946Z,1.5
2023-03-15T15:14:23.722Z,1.600
2023-03-15T15:16:22.833Z,1.5
2023-03-15T15:17:22.732Z,1.600
2023-03-15T15:18:22.545Z,1.5
2023-03-15T15:19:22.379Z,1.799
2023-03-15T15:20:22.639Z,1.600
2023-03-15T15:21:22.770Z,1.700
2023-03-15T15:22:22.596Z,1.600
2023-03-15T15:23:22.717Z,1.5
2023-03-15T15:24:22.659Z,1.399
2023-03-15T15:25:22.306Z,1.600
2023-03-15T15:26:22.763Z,1.5
2023-03-15T15:27:22.970Z,1.299
2023-03-15T15:28:33.890Z,1.600
2023-03-15T15:29:22.167Z,1.299
2023-03-15T15:30:22.405Z,1.399
2023-03-15T15:32:23.832Z,1.5
2023-03-15T15:33:22.813Z,1.399
2023-03-15T15:34:22.466Z,1.600
2023-03-15T15:35:22.963Z,1.399
2023-03-15T15:36:22.076Z,1.5
2023-03-15T15:37:22.100Z,1.299
2023-03-15T15:38:22.918Z,1.5
2023-03-15T15:39:23.437Z,1.399
2023-03-15T15:40:23.276Z,1.200
2023-03-15T15:41:22.540Z,1.399
2023-03-15T15:45:23.356Z,1.5
2023-03-15T15:46:23.099Z,1.399
2023-03-15T15:47:22.904Z,1.5
2023-03-15T15:48:22.384Z,1.200
2023-03-15T15:49:22.000Z,1.299
2023-03-15T15:51:22.564Z,1.399
2023-03-15T15:53:22.385Z,1.200
2023-03-15T15:56:22.773Z,1.399
2023-03-15T15:57:21.907Z,1.5
2023-03-15T15:59:22.648Z,1.399
2023-03-15T16:00:23.545Z,1.200
2023-03-15T16:01:23.800Z,1.5
2023-03-15T16:02:22.338Z,1.399
2023-03-15T16:04:22.660Z,1.600
2023-03-15T16:05:22.609Z,1.5
2023-03-15T16:06:22.211Z,1.299
2023-03-15T16:09:22.660Z,1.200
2023-03-15T16:10:22.693Z,1.5
2023-03-15T16:11:22.807Z,1.399
2023-03-15T16:12:22.240Z,1.200
2023-03-15T16:13:22.767Z,1.299
2023-03-15T16:14:22.243Z,1.399